sensor_id;sensor_type;location;lat;lon;timestamp;P1;durP1;ratioP1;P2;durP2;ratioP2
80707;SDS011;70222;49.204;-122.940;2023-08-31T00:00:17;6.85;;;4.28;;
80707;SDS011;70222;49.204;-122.940;2023-08-31T00:02:44;5.93;;;4.32;;
80707;SDS011;70222;49.204;-122.940;2023-08-31T00:08:32;5.55;;;3.95;;
80707;SDS011;70222;49.204;-122.940;2023-08-31T00:10:59;6.47;;;4.80;;
80707;SDS011;70222;49.204;-122.940;2023-08-31T00:13:25;6.40;;;4.10;;
80707;SDS011;70222;49.204;-122.940;2023-08-31T00:15:55;5.88;;;4.53;;
80707;SDS011;70222;49.204;-122.940;2023-08-31T00:18:22;5.97;;;4.35;;
80707;SDS011;70222;49.204;-122.940;2023-08-31T00:20:50;5.88;;;4.60;;
80707;SDS011;70222;49.204;-122.940;2023-08-31T00:23:16;5.65;;;4.10;;
80707;SDS011;70222;49.204;-122.940;2023-08-31T00:25:44;5.57;;;4.55;;
80707;SDS011;70222;49.204;-122.940;2023-08-31T00:28:11;5.78;;;4.43;;
80707;SDS011;70222;49.204;-122.940;2023-08-31T00:30:37;6.63;;;4.35;;
80707;SDS011;70222;49.204;-122.940;2023-08-31T00:33:03;6.68;;;4.30;;
80707;SDS011;70222;49.204;-122.940;2023-08-31T00:35:29;5.35;;;4.28;;
80707;SDS011;70222;49.204;-122.940;2023-08-31T00:37:55;8.73;;;4.10;;
80707;SDS011;70222;49.204;-122.940;2023-08-31T00:40:25;5.45;;;4.20;;
80707;SDS011;70222;49.204;-122.940;2023-08-31T00:42:53;6.35;;;4.68;;
80707;SDS011;70222;49.204;-122.940;2023-08-31T00:45:19;5.95;;;4.13;;
80707;SDS011;70222;49.204;-122.940;2023-08-31T00:47:48;5.80;;;4.10;;
80707;SDS011;70222;49.204;-122.940;2023-08-31T00:50:14;5.65;;;4.45;;
80707;SDS011;70222;49.204;-122.940;2023-08-31T00:52:41;5.40;;;4.10;;
80707;SDS011;70222;49.204;-122.940;2023-08-31T00:58:32;5.70;;;4.35;;
80707;SDS011;70222;49.204;-122.940;2023-08-31T01:03:52;6.15;;;5.05;;
80707;SDS011;70222;49.204;-122.940;2023-08-31T01:12:58;6.40;;;4.63;;
80707;SDS011;70222;49.204;-122.940;2023-08-31T01:15:17;6.97;;;4.90;;
80707;SDS011;70222;49.204;-122.940;2023-08-31T01:17:47;6.75;;;4.28;;
80707;SDS011;70222;49.204;-122.940;2023-08-31T01:20:26;8.82;;;5.03;;
80707;SDS011;70222;49.204;-122.940;2023-08-31T01:23:09;5.90;;;4.35;;
80707;SDS011;70222;49.204;-122.940;2023-08-31T01:25:36;6.07;;;4.18;;
80707;SDS011;70222;49.204;-122.940;2023-08-31T01:28:08;6.85;;;4.50;;
80707;SDS011;70222;49.204;-122.940;2023-08-31T01:30:36;6.32;;;4.88;;
80707;SDS011;70222;49.204;-122.940;2023-08-31T01:33:02;6.03;;;4.85;;
80707;SDS011;70222;49.204;-122.940;2023-08-31T01:35:33;6.90;;;4.82;;
80707;SDS011;70222;49.204;-122.940;2023-08-31T01:38:06;6.43;;;4.95;;
80707;SDS011;70222;49.204;-122.940;2023-08-31T01:40:56;7.07;;;5.15;;
80707;SDS011;70222;49.204;-122.940;2023-08-31T01:43:26;6.50;;;5.13;;
80707;SDS011;70222;49.204;-122.940;2023-08-31T01:45:53;7.80;;;5.45;;
80707;SDS011;70222;49.204;-122.940;2023-08-31T01:48:20;7.82;;;5.97;;
80707;SDS011;70222;49.204;-122.940;2023-08-31T01:50:46;8.57;;;5.82;;
80707;SDS011;70222;49.204;-122.940;2023-08-31T01:53:12;7.20;;;5.22;;
80707;SDS011;70222;49.204;-122.940;2023-08-31T01:55:38;8.10;;;5.38;;
80707;SDS011;70222;49.204;-122.940;2023-08-31T01:58:04;7.30;;;5.60;;
80707;SDS011;70222;49.204;-122.940;2023-08-31T02:00:30;8.27;;;4.85;;
80707;SDS011;70222;49.204;-122.940;2023-08-31T02:03:00;7.38;;;5.43;;
80707;SDS011;70222;49.204;-122.940;2023-08-31T02:05:27;7.28;;;5.95;;
80707;SDS011;70222;49.204;-122.940;2023-08-31T02:07:53;7.72;;;5.13;;
80707;SDS011;70222;49.204;-122.940;2023-08-31T02:10:19;8.23;;;6.05;;
80707;SDS011;70222;49.204;-122.940;2023-08-31T02:12:45;10.43;;;6.15;;
80707;SDS011;70222;49.204;-122.940;2023-08-31T02:15:12;8.73;;;6.07;;
80707;SDS011;70222;49.204;-122.940;2023-08-31T02:17:38;7.15;;;5.40;;
80707;SDS011;70222;49.204;-122.940;2023-08-31T02:20:04;8.82;;;5.22;;
80707;SDS011;70222;49.204;-122.940;2023-08-31T02:22:33;8.23;;;5.43;;
80707;SDS011;70222;49.204;-122.940;2023-08-31T02:24:59;9.20;;;6.13;;
80707;SDS011;70222;49.204;-122.940;2023-08-31T02:27:26;7.20;;;5.45;;
80707;SDS011;70222;49.204;-122.940;2023-08-31T02:29:54;8.05;;;5.38;;
80707;SDS011;70222;49.204;-122.940;2023-08-31T02:32:20;8.57;;;5.72;;
80707;SDS011;70222;49.204;-122.940;2023-08-31T02:34:46;8.57;;;5.93;;
80707;SDS011;70222;49.204;-122.940;2023-08-31T02:37:13;8.07;;;5.47;;
80707;SDS011;70222;49.204;-122.940;2023-08-31T02:39:39;10.73;;;7.43;;
80707;SDS011;70222;49.204;-122.940;2023-08-31T02:42:05;8.13;;;5.25;;
80707;SDS011;70222;49.204;-122.940;2023-08-31T02:44:33;8.52;;;5.70;;
80707;SDS011;70222;49.204;-122.940;2023-08-31T02:46:59;7.43;;;5.03;;
80707;SDS011;70222;49.204;-122.940;2023-08-31T02:49:25;8.73;;;6.25;;
80707;SDS011;70222;49.204;-122.940;2023-08-31T02:51:51;10.65;;;6.07;;
80707;SDS011;70222;49.204;-122.940;2023-08-31T02:54:17;9.55;;;5.80;;
80707;SDS011;70222;49.204;-122.940;2023-08-31T02:56:44;7.63;;;5.82;;
80707;SDS011;70222;49.204;-122.940;2023-08-31T02:59:11;11.80;;;5.57;;
80707;SDS011;70222;49.204;-122.940;2023-08-31T03:01:37;9.63;;;6.55;;
80707;SDS011;70222;49.204;-122.940;2023-08-31T03:06:33;9.35;;;6.28;;
80707;SDS011;70222;49.204;-122.940;2023-08-31T03:08:59;8.23;;;6.15;;
80707;SDS011;70222;49.204;-122.940;2023-08-31T03:11:27;11.45;;;6.50;;
80707;SDS011;70222;49.204;-122.940;2023-08-31T03:13:53;12.40;;;6.18;;
80707;SDS011;70222;49.204;-122.940;2023-08-31T03:16:19;9.15;;;6.70;;
80707;SDS011;70222;49.204;-122.940;2023-08-31T03:18:46;8.50;;;5.70;;
80707;SDS011;70222;49.204;-122.940;2023-08-31T03:21:12;9.38;;;6.45;;
80707;SDS011;70222;49.204;-122.940;2023-08-31T03:23:38;10.02;;;6.10;;
80707;SDS011;70222;49.204;-122.940;2023-08-31T03:26:07;8.95;;;6.10;;
80707;SDS011;70222;49.204;-122.940;2023-08-31T03:28:34;8.32;;;6.30;;
80707;SDS011;70222;49.204;-122.940;2023-08-31T03:31:01;10.13;;;6.70;;
80707;SDS011;70222;49.204;-122.940;2023-08-31T03:33:27;7.97;;;6.43;;
80707;SDS011;70222;49.204;-122.940;2023-08-31T03:38:20;9.00;;;6.55;;
80707;SDS011;70222;49.204;-122.940;2023-08-31T03:40:52;8.25;;;6.00;;
80707;SDS011;70222;49.204;-122.940;2023-08-31T03:43:20;10.88;;;6.63;;
80707;SDS011;70222;49.204;-122.940;2023-08-31T03:45:46;9.00;;;5.97;;
80707;SDS011;70222;49.204;-122.940;2023-08-31T03:48:12;9.30;;;6.22;;
80707;SDS011;70222;49.204;-122.940;2023-08-31T03:50:38;8.65;;;5.63;;
80707;SDS011;70222;49.204;-122.940;2023-08-31T03:53:04;10.57;;;6.03;;
80707;SDS011;70222;49.204;-122.940;2023-08-31T03:55:30;12.43;;;6.30;;
80707;SDS011;70222;49.204;-122.940;2023-08-31T03:57:56;8.43;;;5.93;;
80707;SDS011;70222;49.204;-122.940;2023-08-31T04:00:23;8.95;;;6.53;;
80707;SDS011;70222;49.204;-122.940;2023-08-31T04:02:49;10.13;;;6.88;;
80707;SDS011;70222;49.204;-122.940;2023-08-31T04:05:15;9.75;;;6.90;;
80707;SDS011;70222;49.204;-122.940;2023-08-31T04:07:41;13.07;;;7.03;;
80707;SDS011;70222;49.204;-122.940;2023-08-31T04:10:08;8.43;;;6.18;;
80707;SDS011;70222;49.204;-122.940;2023-08-31T04:12:34;8.82;;;6.40;;
80707;SDS011;70222;49.204;-122.940;2023-08-31T04:15:00;9.38;;;6.05;;
80707;SDS011;70222;49.204;-122.940;2023-08-31T04:17:26;9.40;;;6.15;;
80707;SDS011;70222;49.204;-122.940;2023-08-31T04:19:53;9.52;;;5.63;;
80707;SDS011;70222;49.204;-122.940;2023-08-31T04:22:19;10.38;;;6.00;;
80707;SDS011;70222;49.204;-122.940;2023-08-31T04:24:45;10.00;;;6.40;;
80707;SDS011;70222;49.204;-122.940;2023-08-31T04:27:11;7.72;;;5.05;;
80707;SDS011;70222;49.204;-122.940;2023-08-31T04:29:37;7.55;;;5.45;;
80707;SDS011;70222;49.204;-122.940;2023-08-31T04:32:04;9.40;;;5.70;;
80707;SDS011;70222;49.204;-122.940;2023-08-31T04:34:30;8.07;;;5.50;;
80707;SDS011;70222;49.204;-122.940;2023-08-31T04:36:56;8.77;;;5.63;;
80707;SDS011;70222;49.204;-122.940;2023-08-31T04:39:22;7.32;;;5.07;;
80707;SDS011;70222;49.204;-122.940;2023-08-31T04:41:48;8.57;;;5.18;;
80707;SDS011;70222;49.204;-122.940;2023-08-31T04:44:15;8.35;;;6.28;;
80707;SDS011;70222;49.204;-122.940;2023-08-31T04:46:42;8.18;;;5.57;;
80707;SDS011;70222;49.204;-122.940;2023-08-31T04:49:08;9.00;;;5.22;;
80707;SDS011;70222;49.204;-122.940;2023-08-31T04:51:35;8.80;;;5.80;;
80707;SDS011;70222;49.204;-122.940;2023-08-31T04:54:04;7.75;;;5.47;;
80707;SDS011;70222;49.204;-122.940;2023-08-31T04:56:32;7.72;;;6.28;;
80707;SDS011;70222;49.204;-122.940;2023-08-31T04:58:58;7.00;;;4.65;;
80707;SDS011;70222;49.204;-122.940;2023-08-31T05:01:25;7.53;;;5.15;;
80707;SDS011;70222;49.204;-122.940;2023-08-31T05:09:38;7.72;;;5.78;;
80707;SDS011;70222;49.204;-122.940;2023-08-31T05:12:04;11.45;;;7.28;;
80707;SDS011;70222;49.204;-122.940;2023-08-31T05:17:53;10.73;;;5.75;;
80707;SDS011;70222;49.204;-122.940;2023-08-31T05:22:47;7.18;;;4.93;;
80707;SDS011;70222;49.204;-122.940;2023-08-31T05:25:14;19.75;;;5.82;;
80707;SDS011;70222;49.204;-122.940;2023-08-31T05:27:40;8.68;;;5.03;;
80707;SDS011;70222;49.204;-122.940;2023-08-31T05:30:06;8.23;;;5.05;;
80707;SDS011;70222;49.204;-122.940;2023-08-31T05:32:33;8.00;;;4.50;;
80707;SDS011;70222;49.204;-122.940;2023-08-31T05:34:59;8.75;;;5.10;;
80707;SDS011;70222;49.204;-122.940;2023-08-31T05:37:25;8.27;;;5.50;;
80707;SDS011;70222;49.204;-122.940;2023-08-31T05:39:51;8.23;;;5.60;;
80707;SDS011;70222;49.204;-122.940;2023-08-31T05:42:17;9.15;;;5.32;;
80707;SDS011;70222;49.204;-122.940;2023-08-31T05:44:44;8.52;;;5.55;;
80707;SDS011;70222;49.204;-122.940;2023-08-31T05:47:10;7.70;;;5.57;;
80707;SDS011;70222;49.204;-122.940;2023-08-31T05:49:36;8.13;;;5.70;;
80707;SDS011;70222;49.204;-122.940;2023-08-31T05:52:02;9.45;;;5.90;;
80707;SDS011;70222;49.204;-122.940;2023-08-31T05:54:28;10.80;;;5.80;;
80707;SDS011;70222;49.204;-122.940;2023-08-31T05:56:54;10.15;;;6.30;;
80707;SDS011;70222;49.204;-122.940;2023-08-31T05:59:22;8.07;;;6.05;;
80707;SDS011;70222;49.204;-122.940;2023-08-31T06:01:48;8.68;;;6.47;;
80707;SDS011;70222;49.204;-122.940;2023-08-31T06:04:14;7.88;;;6.15;;
80707;SDS011;70222;49.204;-122.940;2023-08-31T06:06:40;9.65;;;6.32;;
80707;SDS011;70222;49.204;-122.940;2023-08-31T06:09:06;9.70;;;6.55;;
80707;SDS011;70222;49.204;-122.940;2023-08-31T06:11:33;7.65;;;6.03;;
80707;SDS011;70222;49.204;-122.940;2023-08-31T06:14:00;9.45;;;5.60;;
80707;SDS011;70222;49.204;-122.940;2023-08-31T06:16:26;8.98;;;6.18;;
80707;SDS011;70222;49.204;-122.940;2023-08-31T06:18:52;10.43;;;6.47;;
80707;SDS011;70222;49.204;-122.940;2023-08-31T06:21:18;9.18;;;5.63;;
80707;SDS011;70222;49.204;-122.940;2023-08-31T06:23:44;8.85;;;6.28;;
80707;SDS011;70222;49.204;-122.940;2023-08-31T06:26:10;9.77;;;6.40;;
80707;SDS011;70222;49.204;-122.940;2023-08-31T06:28:37;10.45;;;6.32;;
80707;SDS011;70222;49.204;-122.940;2023-08-31T06:31:03;9.38;;;6.28;;
80707;SDS011;70222;49.204;-122.940;2023-08-31T06:33:29;8.27;;;5.85;;
80707;SDS011;70222;49.204;-122.940;2023-08-31T06:35:55;10.70;;;6.63;;
80707;SDS011;70222;49.204;-122.940;2023-08-31T06:38:22;9.32;;;5.75;;
80707;SDS011;70222;49.204;-122.940;2023-08-31T06:40:48;10.82;;;7.10;;
80707;SDS011;70222;49.204;-122.940;2023-08-31T06:43:14;11.68;;;7.57;;
80707;SDS011;70222;49.204;-122.940;2023-08-31T06:45:40;11.40;;;6.40;;
80707;SDS011;70222;49.204;-122.940;2023-08-31T06:48:07;9.73;;;6.13;;
80707;SDS011;70222;49.204;-122.940;2023-08-31T06:50:33;10.10;;;6.63;;
80707;SDS011;70222;49.204;-122.940;2023-08-31T06:53:02;10.50;;;7.15;;
80707;SDS011;70222;49.204;-122.940;2023-08-31T06:55:29;10.60;;;7.72;;
80707;SDS011;70222;49.204;-122.940;2023-08-31T06:57:57;12.45;;;6.80;;
80707;SDS011;70222;49.204;-122.940;2023-08-31T07:00:23;10.25;;;6.70;;
80707;SDS011;70222;49.204;-122.940;2023-08-31T07:02:49;11.85;;;7.40;;
80707;SDS011;70222;49.204;-122.940;2023-08-31T07:08:37;10.55;;;6.78;;
80707;SDS011;70222;49.204;-122.940;2023-08-31T07:11:06;12.90;;;7.63;;
80707;SDS011;70222;49.204;-122.940;2023-08-31T07:13:32;12.95;;;8.55;;
80707;SDS011;70222;49.204;-122.940;2023-08-31T07:15:58;12.07;;;7.88;;
80707;SDS011;70222;49.204;-122.940;2023-08-31T07:18:24;11.27;;;7.15;;
80707;SDS011;70222;49.204;-122.940;2023-08-31T07:20:50;10.00;;;6.57;;
80707;SDS011;70222;49.204;-122.940;2023-08-31T07:23:16;10.93;;;6.75;;
80707;SDS011;70222;49.204;-122.940;2023-08-31T07:25:42;10.55;;;6.88;;
80707;SDS011;70222;49.204;-122.940;2023-08-31T07:28:09;11.02;;;7.18;;
80707;SDS011;70222;49.204;-122.940;2023-08-31T07:30:36;13.23;;;7.53;;
80707;SDS011;70222;49.204;-122.940;2023-08-31T07:33:02;11.77;;;6.97;;
80707;SDS011;70222;49.204;-122.940;2023-08-31T07:35:32;10.40;;;6.70;;
80707;SDS011;70222;49.204;-122.940;2023-08-31T07:37:58;11.52;;;7.28;;
80707;SDS011;70222;49.204;-122.940;2023-08-31T07:40:24;11.55;;;6.85;;
80707;SDS011;70222;49.204;-122.940;2023-08-31T07:42:50;12.85;;;7.28;;
80707;SDS011;70222;49.204;-122.940;2023-08-31T07:45:18;12.15;;;7.15;;
80707;SDS011;70222;49.204;-122.940;2023-08-31T07:47:44;14.10;;;7.60;;
80707;SDS011;70222;49.204;-122.940;2023-08-31T07:50:10;11.13;;;7.28;;
80707;SDS011;70222;49.204;-122.940;2023-08-31T07:52:37;12.05;;;6.68;;
80707;SDS011;70222;49.204;-122.940;2023-08-31T07:55:03;13.40;;;7.43;;
80707;SDS011;70222;49.204;-122.940;2023-08-31T07:57:30;14.05;;;8.07;;
80707;SDS011;70222;49.204;-122.940;2023-08-31T07:59:56;13.27;;;8.52;;
80707;SDS011;70222;49.204;-122.940;2023-08-31T08:02:22;14.48;;;8.75;;
80707;SDS011;70222;49.204;-122.940;2023-08-31T08:04:48;13.40;;;7.97;;
80707;SDS011;70222;49.204;-122.940;2023-08-31T08:07:14;16.80;;;8.60;;
80707;SDS011;70222;49.204;-122.940;2023-08-31T08:09:40;18.63;;;8.45;;
80707;SDS011;70222;49.204;-122.940;2023-08-31T08:12:06;14.30;;;7.63;;
80707;SDS011;70222;49.204;-122.940;2023-08-31T08:14:33;15.60;;;9.57;;
80707;SDS011;70222;49.204;-122.940;2023-08-31T08:16:59;13.82;;;8.13;;
80707;SDS011;70222;49.204;-122.940;2023-08-31T08:19:26;14.50;;;8.73;;
80707;SDS011;70222;49.204;-122.940;2023-08-31T08:21:52;13.75;;;8.15;;
80707;SDS011;70222;49.204;-122.940;2023-08-31T08:24:18;17.65;;;9.35;;
80707;SDS011;70222;49.204;-122.940;2023-08-31T08:26:44;13.15;;;7.40;;
80707;SDS011;70222;49.204;-122.940;2023-08-31T08:29:10;14.93;;;7.43;;
80707;SDS011;70222;49.204;-122.940;2023-08-31T08:31:37;14.65;;;7.32;;
80707;SDS011;70222;49.204;-122.940;2023-08-31T08:34:03;11.27;;;6.57;;
80707;SDS011;70222;49.204;-122.940;2023-08-31T08:36:29;12.10;;;7.55;;
80707;SDS011;70222;49.204;-122.940;2023-08-31T08:38:55;14.10;;;7.35;;
80707;SDS011;70222;49.204;-122.940;2023-08-31T08:41:24;10.82;;;6.72;;
80707;SDS011;70222;49.204;-122.940;2023-08-31T08:43:53;10.90;;;7.00;;
80707;SDS011;70222;49.204;-122.940;2023-08-31T08:46:19;13.77;;;7.45;;
80707;SDS011;70222;49.204;-122.940;2023-08-31T08:48:46;10.88;;;7.55;;
80707;SDS011;70222;49.204;-122.940;2023-08-31T08:51:13;13.07;;;6.63;;
80707;SDS011;70222;49.204;-122.940;2023-08-31T08:53:42;11.07;;;6.75;;
80707;SDS011;70222;49.204;-122.940;2023-08-31T08:56:09;13.55;;;7.10;;
80707;SDS011;70222;49.204;-122.940;2023-08-31T08:58:35;13.77;;;7.20;;
80707;SDS011;70222;49.204;-122.940;2023-08-31T09:01:01;11.63;;;6.90;;
80707;SDS011;70222;49.204;-122.940;2023-08-31T09:03:27;9.43;;;6.22;;
80707;SDS011;70222;49.204;-122.940;2023-08-31T09:05:54;11.63;;;7.47;;
80707;SDS011;70222;49.204;-122.940;2023-08-31T09:08:28;12.43;;;7.25;;
80707;SDS011;70222;49.204;-122.940;2023-08-31T09:10:55;11.15;;;6.72;;
80707;SDS011;70222;49.204;-122.940;2023-08-31T09:13:28;10.10;;;6.72;;
80707;SDS011;70222;49.204;-122.940;2023-08-31T09:15:55;11.65;;;6.82;;
80707;SDS011;70222;49.204;-122.940;2023-08-31T09:18:27;10.73;;;6.70;;
80707;SDS011;70222;49.204;-122.940;2023-08-31T09:20:56;11.30;;;6.72;;
80707;SDS011;70222;49.204;-122.940;2023-08-31T09:23:23;14.38;;;7.75;;
80707;SDS011;70222;49.204;-122.940;2023-08-31T09:25:50;12.05;;;7.00;;
80707;SDS011;70222;49.204;-122.940;2023-08-31T09:28:19;11.57;;;7.13;;
80707;SDS011;70222;49.204;-122.940;2023-08-31T09:30:47;10.13;;;6.68;;
80707;SDS011;70222;49.204;-122.940;2023-08-31T09:33:15;10.45;;;6.70;;
80707;SDS011;70222;49.204;-122.940;2023-08-31T09:36:00;11.07;;;6.35;;
80707;SDS011;70222;49.204;-122.940;2023-08-31T09:38:26;10.82;;;6.60;;
80707;SDS011;70222;49.204;-122.940;2023-08-31T09:41:03;8.93;;;6.13;;
80707;SDS011;70222;49.204;-122.940;2023-08-31T09:45:58;8.32;;;5.65;;
80707;SDS011;70222;49.204;-122.940;2023-08-31T09:50:50;10.25;;;6.40;;
80707;SDS011;70222;49.204;-122.940;2023-08-31T09:53:17;11.00;;;6.63;;
80707;SDS011;70222;49.204;-122.940;2023-08-31T09:55:46;14.68;;;7.20;;
80707;SDS011;70222;49.204;-122.940;2023-08-31T09:58:17;10.23;;;7.60;;
80707;SDS011;70222;49.204;-122.940;2023-08-31T10:00:50;10.15;;;6.88;;
80707;SDS011;70222;49.204;-122.940;2023-08-31T10:03:18;9.18;;;6.22;;
80707;SDS011;70222;49.204;-122.940;2023-08-31T10:05:44;9.73;;;5.93;;
80707;SDS011;70222;49.204;-122.940;2023-08-31T10:08:14;10.10;;;6.95;;
80707;SDS011;70222;49.204;-122.940;2023-08-31T10:10:41;8.75;;;6.32;;
80707;SDS011;70222;49.204;-122.940;2023-08-31T10:13:07;8.32;;;5.97;;
80707;SDS011;70222;49.204;-122.940;2023-08-31T10:15:34;9.10;;;6.38;;
80707;SDS011;70222;49.204;-122.940;2023-08-31T10:18:04;10.52;;;6.75;;
80707;SDS011;70222;49.204;-122.940;2023-08-31T10:20:32;12.20;;;7.05;;
80707;SDS011;70222;49.204;-122.940;2023-08-31T10:22:59;9.60;;;6.97;;
80707;SDS011;70222;49.204;-122.940;2023-08-31T10:25:25;10.30;;;6.95;;
80707;SDS011;70222;49.204;-122.940;2023-08-31T10:28:18;9.95;;;5.78;;
80707;SDS011;70222;49.204;-122.940;2023-08-31T10:33:34;9.02;;;6.18;;
80707;SDS011;70222;49.204;-122.940;2023-08-31T10:36:08;11.02;;;6.80;;
80707;SDS011;70222;49.204;-122.940;2023-08-31T10:38:35;11.02;;;6.00;;
80707;SDS011;70222;49.204;-122.940;2023-08-31T10:48:52;11.63;;;7.85;;
80707;SDS011;70222;49.204;-122.940;2023-08-31T10:51:46;10.73;;;6.63;;
80707;SDS011;70222;49.204;-122.940;2023-08-31T10:56:52;10.10;;;6.68;;
80707;SDS011;70222;49.204;-122.940;2023-08-31T10:59:46;11.65;;;6.88;;
80707;SDS011;70222;49.204;-122.940;2023-08-31T11:05:02;11.77;;;6.38;;
80707;SDS011;70222;49.204;-122.940;2023-08-31T11:07:34;10.68;;;6.57;;
80707;SDS011;70222;49.204;-122.940;2023-08-31T11:10:08;10.18;;;6.57;;
80707;SDS011;70222;49.204;-122.940;2023-08-31T11:12:43;10.23;;;6.70;;
80707;SDS011;70222;49.204;-122.940;2023-08-31T11:15:11;10.38;;;6.75;;
80707;SDS011;70222;49.204;-122.940;2023-08-31T11:17:39;9.57;;;6.43;;
80707;SDS011;70222;49.204;-122.940;2023-08-31T11:20:07;11.60;;;6.20;;
80707;SDS011;70222;49.204;-122.940;2023-08-31T11:22:34;10.57;;;6.88;;
80707;SDS011;70222;49.204;-122.940;2023-08-31T11:25:05;9.38;;;6.13;;
80707;SDS011;70222;49.204;-122.940;2023-08-31T11:27:32;9.55;;;6.43;;
80707;SDS011;70222;49.204;-122.940;2023-08-31T11:29:58;12.73;;;7.25;;
80707;SDS011;70222;49.204;-122.940;2023-08-31T11:32:24;11.20;;;6.88;;
80707;SDS011;70222;49.204;-122.940;2023-08-31T11:34:50;11.05;;;7.30;;
80707;SDS011;70222;49.204;-122.940;2023-08-31T11:37:16;10.27;;;6.75;;
80707;SDS011;70222;49.204;-122.940;2023-08-31T11:39:54;10.45;;;6.57;;
80707;SDS011;70222;49.204;-122.940;2023-08-31T11:42:21;11.30;;;6.15;;
80707;SDS011;70222;49.204;-122.940;2023-08-31T11:44:48;11.43;;;7.03;;
80707;SDS011;70222;49.204;-122.940;2023-08-31T11:47:15;9.88;;;6.13;;
80707;SDS011;70222;49.204;-122.940;2023-08-31T11:49:42;9.48;;;6.50;;
80707;SDS011;70222;49.204;-122.940;2023-08-31T11:52:09;10.30;;;6.70;;
80707;SDS011;70222;49.204;-122.940;2023-08-31T11:54:41;10.48;;;7.13;;
80707;SDS011;70222;49.204;-122.940;2023-08-31T11:57:11;10.13;;;6.65;;
80707;SDS011;70222;49.204;-122.940;2023-08-31T11:59:38;10.27;;;6.25;;
80707;SDS011;70222;49.204;-122.940;2023-08-31T12:02:08;10.35;;;7.10;;
80707;SDS011;70222;49.204;-122.940;2023-08-31T12:04:44;9.93;;;6.30;;
80707;SDS011;70222;49.204;-122.940;2023-08-31T12:07:11;10.25;;;6.20;;
80707;SDS011;70222;49.204;-122.940;2023-08-31T12:09:41;11.50;;;6.88;;
80707;SDS011;70222;49.204;-122.940;2023-08-31T12:12:10;11.95;;;7.05;;
80707;SDS011;70222;49.204;-122.940;2023-08-31T12:14:37;8.25;;;5.82;;
80707;SDS011;70222;49.204;-122.940;2023-08-31T12:17:07;10.02;;;6.70;;
80707;SDS011;70222;49.204;-122.940;2023-08-31T12:19:36;10.95;;;6.50;;
80707;SDS011;70222;49.204;-122.940;2023-08-31T12:22:03;10.63;;;6.68;;
80707;SDS011;70222;49.204;-122.940;2023-08-31T12:24:29;9.50;;;6.18;;
80707;SDS011;70222;49.204;-122.940;2023-08-31T12:26:55;9.48;;;6.47;;
80707;SDS011;70222;49.204;-122.940;2023-08-31T12:29:22;9.07;;;6.15;;
80707;SDS011;70222;49.204;-122.940;2023-08-31T12:31:48;10.25;;;6.22;;
80707;SDS011;70222;49.204;-122.940;2023-08-31T12:34:15;10.05;;;6.55;;
80707;SDS011;70222;49.204;-122.940;2023-08-31T12:36:41;9.40;;;6.32;;
80707;SDS011;70222;49.204;-122.940;2023-08-31T12:39:08;8.48;;;5.57;;
80707;SDS011;70222;49.204;-122.940;2023-08-31T12:41:35;9.07;;;6.05;;
80707;SDS011;70222;49.204;-122.940;2023-08-31T12:44:02;9.23;;;5.63;;
80707;SDS011;70222;49.204;-122.940;2023-08-31T12:46:29;7.43;;;5.28;;
80707;SDS011;70222;49.204;-122.940;2023-08-31T12:48:56;8.65;;;5.95;;
80707;SDS011;70222;49.204;-122.940;2023-08-31T12:51:22;8.30;;;5.97;;
80707;SDS011;70222;49.204;-122.940;2023-08-31T12:53:48;16.98;;;8.68;;
80707;SDS011;70222;49.204;-122.940;2023-08-31T12:56:14;17.75;;;9.10;;
80707;SDS011;70222;49.204;-122.940;2023-08-31T12:58:55;19.15;;;10.23;;
80707;SDS011;70222;49.204;-122.940;2023-08-31T13:01:21;19.48;;;11.00;;
80707;SDS011;70222;49.204;-122.940;2023-08-31T13:03:51;19.00;;;9.95;;
80707;SDS011;70222;49.204;-122.940;2023-08-31T13:06:17;20.42;;;10.77;;
80707;SDS011;70222;49.204;-122.940;2023-08-31T13:08:44;19.95;;;11.63;;
80707;SDS011;70222;49.204;-122.940;2023-08-31T13:11:11;20.08;;;10.98;;
80707;SDS011;70222;49.204;-122.940;2023-08-31T13:13:40;19.17;;;11.02;;
80707;SDS011;70222;49.204;-122.940;2023-08-31T13:16:06;17.13;;;9.10;;
80707;SDS011;70222;49.204;-122.940;2023-08-31T13:18:32;21.20;;;10.32;;
80707;SDS011;70222;49.204;-122.940;2023-08-31T13:20:59;18.83;;;10.38;;
80707;SDS011;70222;49.204;-122.940;2023-08-31T13:25:52;18.38;;;9.73;;
80707;SDS011;70222;49.204;-122.940;2023-08-31T13:28:18;19.83;;;11.18;;
80707;SDS011;70222;49.204;-122.940;2023-08-31T13:30:44;19.10;;;9.95;;
80707;SDS011;70222;49.204;-122.940;2023-08-31T13:33:11;20.30;;;10.45;;
80707;SDS011;70222;49.204;-122.940;2023-08-31T13:35:37;22.15;;;12.20;;
80707;SDS011;70222;49.204;-122.940;2023-08-31T13:38:04;20.55;;;10.70;;
80707;SDS011;70222;49.204;-122.940;2023-08-31T13:40:30;20.83;;;11.05;;
80707;SDS011;70222;49.204;-122.940;2023-08-31T13:42:57;20.65;;;11.32;;
80707;SDS011;70222;49.204;-122.940;2023-08-31T13:45:28;21.40;;;10.05;;
80707;SDS011;70222;49.204;-122.940;2023-08-31T13:47:58;18.80;;;9.23;;
80707;SDS011;70222;49.204;-122.940;2023-08-31T13:50:25;22.77;;;10.77;;
80707;SDS011;70222;49.204;-122.940;2023-08-31T13:55:18;21.17;;;10.45;;
80707;SDS011;70222;49.204;-122.940;2023-08-31T13:57:44;21.02;;;10.63;;
80707;SDS011;70222;49.204;-122.940;2023-08-31T14:00:11;20.65;;;10.05;;
80707;SDS011;70222;49.204;-122.940;2023-08-31T14:02:37;22.17;;;10.68;;
80707;SDS011;70222;49.204;-122.940;2023-08-31T14:08:25;18.85;;;9.50;;
80707;SDS011;70222;49.204;-122.940;2023-08-31T14:10:53;18.02;;;10.32;;
80707;SDS011;70222;49.204;-122.940;2023-08-31T14:13:20;21.52;;;11.35;;
80707;SDS011;70222;49.204;-122.940;2023-08-31T14:15:46;19.73;;;9.63;;
80707;SDS011;70222;49.204;-122.940;2023-08-31T14:18:12;20.20;;;9.93;;
80707;SDS011;70222;49.204;-122.940;2023-08-31T14:20:39;21.80;;;11.43;;
80707;SDS011;70222;49.204;-122.940;2023-08-31T14:23:05;17.85;;;10.65;;
80707;SDS011;70222;49.204;-122.940;2023-08-31T14:25:35;20.77;;;10.13;;
80707;SDS011;70222;49.204;-122.940;2023-08-31T14:28:04;20.88;;;10.48;;
80707;SDS011;70222;49.204;-122.940;2023-08-31T14:30:30;20.23;;;10.95;;
80707;SDS011;70222;49.204;-122.940;2023-08-31T14:32:56;19.63;;;10.52;;
80707;SDS011;70222;49.204;-122.940;2023-08-31T14:35:27;20.35;;;10.43;;
80707;SDS011;70222;49.204;-122.940;2023-08-31T14:37:53;18.58;;;10.45;;
80707;SDS011;70222;49.204;-122.940;2023-08-31T14:40:19;20.40;;;10.02;;
80707;SDS011;70222;49.204;-122.940;2023-08-31T14:42:45;19.50;;;10.30;;
80707;SDS011;70222;49.204;-122.940;2023-08-31T14:45:11;18.45;;;9.77;;
80707;SDS011;70222;49.204;-122.940;2023-08-31T14:47:38;21.02;;;11.43;;
80707;SDS011;70222;49.204;-122.940;2023-08-31T14:50:04;23.20;;;11.45;;
80707;SDS011;70222;49.204;-122.940;2023-08-31T14:52:30;20.23;;;11.05;;
80707;SDS011;70222;49.204;-122.940;2023-08-31T14:58:18;24.30;;;13.10;;
80707;SDS011;70222;49.204;-122.940;2023-08-31T15:00:45;26.15;;;12.25;;
80707;SDS011;70222;49.204;-122.940;2023-08-31T15:03:12;20.90;;;10.13;;
80707;SDS011;70222;49.204;-122.940;2023-08-31T15:05:38;19.95;;;11.70;;
80707;SDS011;70222;49.204;-122.940;2023-08-31T15:08:07;22.40;;;12.13;;
80707;SDS011;70222;49.204;-122.940;2023-08-31T15:10:34;25.38;;;12.15;;